createdAt,value
2023-07-11T00:00:45.735Z,76.60
2023-07-11T00:03:31.921Z,76.60
2023-07-11T00:06:20.491Z,77.10
2023-07-11T00:09:07.086Z,77.00
2023-07-11T00:11:53.228Z,76.60
2023-07-11T00:14:39.731Z,76.70
2023-07-11T00:17:25.933Z,76.60
2023-07-11T00:20:16.069Z,76.60
2023-07-11T00:23:02.445Z,76.60
2023-07-11T00:25:49.291Z,76.60
2023-07-11T00:28:35.189Z,76.80
2023-07-11T00:31:21.872Z,77.10
2023-07-11T00:34:08.367Z,77.30
2023-07-11T00:36:55.135Z,77.60
2023-07-11T00:39:41.534Z,77.90
2023-07-11T00:42:27.887Z,78.40
2023-07-11T00:45:51.495Z,78.70
2023-07-11T00:48:42.484Z,79.10
2023-07-11T00:51:42.758Z,79.20
2023-07-11T00:54:33.277Z,79.00
2023-07-11T00:57:20.230Z,79.00
2023-07-11T01:00:07.366Z,78.90
2023-07-11T01:02:53.796Z,79.30
2023-07-11T01:05:41.104Z,78.80
2023-07-11T01:08:28.659Z,78.60
2023-07-11T01:11:14.921Z,78.80
2023-07-11T01:14:01.299Z,79.60
2023-07-11T01:16:47.694Z,80.30
2023-07-11T01:19:34.172Z,80.70
2023-07-11T01:22:20.512Z,81.00
2023-07-11T01:25:11.323Z,81.40
2023-07-11T01:27:57.701Z,81.30
2023-07-11T01:30:45.265Z,81.50
2023-07-11T01:33:34.109Z,81.70
2023-07-11T01:36:20.218Z,81.80
2023-07-11T01:39:10.902Z,81.70
2023-07-11T01:41:56.964Z,81.70
2023-07-11T01:44:43.054Z,81.60
2023-07-11T01:47:29.063Z,81.90
2023-07-11T01:50:15.402Z,81.90
2023-07-11T01:53:01.944Z,81.60
2023-07-11T01:55:59.047Z,81.70
2023-07-11T01:58:46.584Z,81.60
2023-07-11T02:01:33.065Z,81.30
2023-07-11T02:04:22.754Z,81.50
2023-07-11T02:07:09.259Z,81.40
2023-07-11T02:09:55.480Z,81.70
2023-07-11T02:12:41.474Z,82.00
2023-07-11T02:15:28.348Z,82.30
2023-07-11T02:18:14.669Z,82.00
2023-07-11T02:21:01.168Z,82.30
2023-07-11T02:23:47.559Z,82.40
2023-07-11T02:26:34.554Z,82.40
2023-07-11T02:29:20.674Z,82.60
2023-07-11T02:32:06.980Z,82.70
2023-07-11T02:34:53.008Z,82.50
2023-07-11T02:37:39.601Z,82.50
2023-07-11T02:40:25.788Z,82.90
2023-07-11T02:43:11.580Z,82.80
2023-07-11T02:45:58.262Z,82.70
2023-07-11T02:48:45.266Z,82.80
2023-07-11T02:51:31.502Z,82.90
2023-07-11T02:54:17.758Z,83.60
2023-07-11T02:57:13.111Z,83.90
2023-07-11T02:59:59.480Z,83.80
2023-07-11T03:02:45.366Z,83.80
2023-07-11T03:05:31.529Z,83.80
2023-07-11T03:08:18.255Z,84.10
2023-07-11T03:11:04.725Z,84.30
2023-07-11T03:13:51.031Z,85.20
2023-07-11T03:16:37.364Z,86.30
2023-07-11T03:19:24.067Z,86.50
2023-07-11T03:22:10.837Z,86.40
2023-07-11T03:24:56.879Z,86.50
2023-07-11T03:27:43.420Z,86.70
2023-07-11T03:30:31.467Z,86.90
2023-07-11T03:33:17.841Z,86.60
2023-07-11T03:36:04.347Z,86.30
2023-07-11T03:38:50.728Z,86.10
2023-07-11T03:41:37.411Z,85.90
2023-07-11T03:44:23.629Z,86.00
2023-07-11T03:47:10.061Z,85.90
2023-07-11T03:49:56.371Z,85.90
2023-07-11T03:52:42.184Z,86.20
2023-07-11T03:55:28.270Z,86.20
2023-07-11T03:58:14.279Z,86.30
2023-07-11T04:01:00.280Z,86.50
2023-07-11T04:03:46.905Z,86.70
2023-07-11T04:06:33.146Z,86.90
2023-07-11T04:09:19.159Z,86.90
2023-07-11T04:12:05.415Z,87.00
2023-07-11T04:14:51.243Z,87.20
2023-07-11T04:17:37.497Z,87.30
2023-07-11T04:20:24.184Z,87.20
2023-07-11T04:23:10.192Z,87.30
2023-07-11T04:25:56.366Z,87.50
2023-07-11T04:28:42.737Z,87.50
2023-07-11T04:31:28.816Z,87.50
2023-07-11T04:34:14.766Z,87.60
2023-07-11T04:37:00.646Z,87.70
2023-07-11T04:39:46.720Z,87.50
2023-07-11T04:42:33.188Z,87.50
2023-07-11T04:45:19.362Z,87.70
2023-07-11T04:48:05.714Z,87.50
2023-07-11T04:51:04.241Z,87.50
2023-07-11T04:53:50.552Z,87.40
2023-07-11T04:56:40.010Z,87.30
2023-07-11T04:59:27.093Z,87.20
2023-07-11T05:02:13.534Z,87.20
2023-07-11T05:04:59.910Z,87.10
2023-07-11T05:07:45.751Z,86.60
2023-07-11T05:10:31.690Z,86.50
2023-07-11T05:13:17.564Z,86.20
2023-07-11T05:16:06.680Z,86.10
2023-07-11T05:18:53.664Z,85.90
2023-07-11T05:21:40.121Z,85.60
2023-07-11T05:24:26.779Z,85.80
2023-07-11T05:27:12.780Z,84.80
2023-07-11T05:29:58.990Z,84.90
2023-07-11T05:32:45.115Z,84.70
2023-07-11T05:36:02.826Z,84.10
2023-07-11T05:38:49.614Z,84.20
2023-07-11T05:41:37.487Z,84.50
2023-07-11T05:44:23.860Z,84.70
2023-07-11T05:47:10.771Z,84.90
2023-07-11T05:49:56.827Z,84.80
2023-07-11T05:52:42.875Z,84.80
2023-07-11T05:55:28.935Z,84.80
2023-07-11T05:58:14.763Z,84.70
2023-07-11T06:01:01.865Z,84.30
2023-07-11T06:04:02.646Z,84.50
2023-07-11T06:06:50.523Z,84.30
2023-07-11T06:09:36.857Z,83.90
2023-07-11T06:12:23.655Z,83.60
2023-07-11T06:15:10.132Z,83.00
2023-07-11T06:17:56.211Z,82.30
2023-07-11T06:20:42.688Z,81.90
2023-07-11T06:23:29.106Z,81.70
2023-07-11T06:26:16.132Z,80.80
2023-07-11T06:29:02.138Z,79.10
2023-07-11T06:31:48.077Z,77.10
2023-07-11T06:34:34.046Z,76.60
2023-07-11T06:37:20.013Z,75.70
2023-07-11T06:40:09.977Z,75.50
2023-07-11T06:42:56.310Z,73.90
2023-07-11T06:45:42.250Z,73.10
2023-07-11T06:48:30.092Z,73.60
2023-07-11T06:51:16.143Z,73.10
2023-07-11T06:54:02.317Z,72.80
2023-07-11T06:56:48.297Z,72.10
2023-07-11T06:59:34.475Z,70.50
2023-07-11T07:02:20.514Z,70.20
2023-07-11T07:05:07.237Z,68.60
2023-07-11T07:08:05.103Z,66.90
2023-07-11T07:10:59.457Z,65.30
2023-07-11T07:13:52.104Z,64.40
2023-07-11T07:16:50.248Z,64.80
2023-07-11T07:19:36.143Z,64.30
2023-07-11T07:22:21.941Z,63.90
2023-07-11T07:25:23.747Z,62.70
2023-07-11T07:28:11.321Z,62.80
2023-07-11T07:30:58.969Z,61.80
2023-07-11T07:33:45.434Z,61.50
2023-07-11T07:36:31.714Z,59.50
2023-07-11T07:39:17.610Z,58.70
2023-07-11T07:42:03.886Z,58.40
2023-07-11T07:44:52.239Z,59.20
2023-07-11T07:47:38.028Z,60.10
2023-07-11T07:50:24.598Z,58.50
2023-07-11T07:53:10.637Z,59.30
2023-07-11T07:56:01.859Z,58.00
2023-07-11T07:58:48.798Z,57.40
2023-07-11T08:01:34.866Z,57.20
2023-07-11T08:04:20.795Z,57.30
2023-07-11T08:07:07.161Z,57.80
2023-07-11T08:09:57.343Z,58.10
2023-07-11T08:12:44.383Z,57.70
2023-07-11T08:15:30.496Z,58.20
2023-07-11T08:18:16.529Z,57.40
2023-07-11T08:21:03.253Z,58.00
2023-07-11T08:23:49.476Z,57.90
2023-07-11T08:26:35.429Z,58.10
2023-07-11T08:29:29.720Z,57.60
2023-07-11T08:32:18.998Z,58.40
2023-07-11T08:35:06.541Z,58.20
2023-07-11T08:37:52.394Z,58.80
2023-07-11T08:40:48.559Z,58.70
2023-07-11T08:43:36.171Z,58.50
2023-07-11T08:46:23.688Z,58.40
2023-07-11T08:49:18.686Z,57.80
2023-07-11T08:52:08.193Z,58.10
2023-07-11T08:55:01.594Z,58.10
2023-07-11T08:57:53.604Z,58.60
2023-07-11T09:00:40.938Z,58.20
2023-07-11T09:03:45.817Z,58.10
2023-07-11T09:06:37.965Z,57.30
2023-07-11T09:09:25.276Z,57.80
2023-07-11T09:12:46.072Z,58.50
2023-07-11T09:15:53.871Z,58.60
2023-07-11T09:18:58.804Z,57.30
2023-07-11T09:21:59.997Z,57.70
2023-07-11T09:25:28.242Z,58.10
2023-07-11T09:28:27.880Z,57.90
2023-07-11T09:31:20.451Z,57.40
2023-07-11T09:34:19.314Z,58.30
2023-07-11T09:37:29.053Z,57.50
2023-07-11T09:40:42.069Z,57.40
2023-07-11T09:43:28.164Z,57.30
2023-07-11T09:46:22.169Z,57.00
2023-07-11T09:49:17.711Z,57.60
2023-07-11T09:52:04.695Z,57.60
2023-07-11T09:55:03.217Z,57.50
2023-07-11T09:57:53.630Z,57.10
2023-07-11T10:00:44.275Z,56.70
2023-07-11T10:03:35.629Z,56.30
2023-07-11T10:06:52.636Z,56.20
2023-07-11T10:09:45.726Z,56.00
2023-07-11T10:12:31.881Z,55.50
2023-07-11T10:15:17.994Z,54.90
2023-07-11T10:18:04.291Z,54.60
2023-07-11T10:20:56.319Z,53.60
2023-07-11T10:23:49.148Z,53.30
2023-07-11T10:26:39.593Z,53.00
2023-07-11T10:29:29.971Z,52.50
2023-07-11T10:32:32.765Z,52.20
2023-07-11T10:35:21.830Z,51.80
2023-07-11T10:38:21.114Z,51.40
2023-07-11T10:41:14.557Z,50.90
2023-07-11T10:44:03.604Z,49.70
2023-07-11T10:46:54.359Z,50.40
2023-07-11T10:49:48.241Z,50.40
2023-07-11T10:52:36.793Z,50.50
2023-07-11T10:55:30.990Z,50.20
2023-07-11T10:58:21.887Z,50.70
2023-07-11T11:01:33.367Z,50.10
2023-07-11T11:04:34.623Z,49.60
2023-07-11T11:07:38.118Z,50.50
2023-07-11T11:11:08.152Z,50.00
2023-07-11T11:14:13.774Z,49.10
2023-07-11T11:17:46.171Z,49.60
2023-07-11T11:21:06.635Z,48.90
2023-07-11T11:24:23.777Z,49.00
2023-07-11T11:27:28.642Z,49.80
2023-07-11T11:30:17.819Z,49.90
2023-07-11T11:33:25.689Z,49.70
2023-07-11T11:36:37.640Z,49.50
2023-07-11T11:39:50.733Z,49.20
2023-07-11T11:42:39.171Z,49.20
2023-07-11T11:51:14.419Z,48.60
2023-07-11T11:54:21.800Z,49.10
2023-07-11T11:57:11.707Z,48.70
2023-07-11T11:59:58.499Z,48.70
2023-07-11T12:02:49.831Z,48.60
2023-07-11T12:05:37.191Z,47.90
2023-07-11T12:08:26.499Z,48.10
2023-07-11T12:11:12.211Z,47.50
2023-07-11T12:14:26.197Z,47.50
2023-07-11T12:17:32.780Z,47.40
2023-07-11T12:20:29.014Z,47.60
2023-07-11T12:23:27.691Z,47.40
2023-07-11T12:26:26.478Z,47.30
2023-07-11T12:29:52.475Z,47.50
2023-07-11T12:32:50.281Z,48.10
2023-07-11T12:35:37.402Z,48.00
2023-07-11T12:38:56.401Z,47.80
2023-07-11T12:41:54.848Z,47.20
2023-07-11T12:44:41.222Z,47.60
2023-07-11T12:47:29.710Z,48.00
2023-07-11T12:50:33.436Z,48.00
2023-07-11T12:53:20.233Z,47.70
2023-07-11T12:56:14.300Z,47.50
2023-07-11T12:59:01.306Z,46.80
2023-07-11T13:01:50.480Z,46.60
2023-07-11T13:04:46.780Z,46.80
2023-07-11T13:07:36.988Z,46.40
2023-07-11T13:10:25.585Z,47.10
2023-07-11T13:13:13.059Z,47.30
2023-07-11T13:16:04.446Z,47.00
2023-07-11T13:18:52.291Z,47.40
2023-07-11T13:21:38.603Z,46.40
2023-07-11T13:24:28.379Z,46.60
2023-07-11T13:27:26.677Z,46.60
2023-07-11T13:30:25.367Z,46.50
2023-07-11T13:36:34.699Z,46.00
2023-07-11T13:39:28.001Z,46.20
2023-07-11T13:42:14.846Z,46.10
2023-07-11T13:45:19.789Z,46.80
2023-07-11T13:48:06.199Z,47.20
2023-07-11T13:51:17.569Z,46.80
2023-07-11T13:54:37.886Z,46.60
2023-07-11T13:57:24.393Z,46.70
2023-07-11T14:00:14.539Z,46.90
2023-07-11T14:03:01.383Z,46.90
2023-07-11T14:05:52.883Z,47.20
2023-07-11T14:08:42.508Z,46.90
2023-07-11T14:11:30.076Z,47.50
2023-07-11T14:14:33.486Z,47.30
2023-07-11T14:17:25.470Z,47.30
2023-07-11T14:20:18.728Z,47.70
2023-07-11T14:23:18.138Z,47.70
2023-07-11T14:26:04.884Z,48.00
2023-07-11T14:28:53.002Z,47.80
2023-07-11T14:31:39.201Z,48.00
2023-07-11T14:34:27.493Z,47.70
2023-07-11T14:37:15.779Z,47.60
2023-07-11T14:40:01.788Z,47.80
2023-07-11T14:42:48.765Z,48.20
2023-07-11T14:45:35.755Z,48.00
2023-07-11T14:48:24.283Z,47.60
2023-07-11T14:51:11.497Z,47.70
2023-07-11T14:53:59.766Z,48.10
2023-07-11T14:59:37.352Z,48.10
2023-07-11T15:02:30.151Z,48.80
2023-07-11T15:11:19.129Z,47.90
2023-07-11T15:17:24.900Z,48.50
2023-07-11T15:20:15.430Z,48.50
2023-07-11T15:23:02.163Z,48.30
2023-07-11T15:25:48.811Z,47.80
2023-07-11T15:28:35.858Z,47.60
2023-07-11T15:31:22.208Z,42.90
2023-07-11T15:34:23.642Z,40.90
2023-07-11T15:37:11.289Z,40.70
2023-07-11T15:39:57.482Z,40.40
2023-07-11T15:42:43.576Z,39.10
2023-07-11T15:45:32.076Z,38.80
2023-07-11T15:48:18.405Z,38.70
2023-07-11T15:51:04.824Z,38.50
2023-07-11T15:53:51.369Z,39.20
2023-07-11T15:56:40.810Z,39.80
2023-07-11T15:59:28.971Z,40.10
2023-07-11T16:02:24.072Z,40.40
2023-07-11T16:05:13.059Z,40.60
2023-07-11T16:07:59.589Z,41.10
2023-07-11T16:10:47.921Z,41.40
2023-07-11T16:13:33.879Z,41.50
2023-07-11T16:16:27.282Z,41.20
2023-07-11T16:19:19.188Z,41.60
2023-07-11T16:22:05.477Z,41.20
2023-07-11T16:24:51.559Z,42.20
2023-07-11T16:27:41.846Z,42.20
2023-07-11T16:30:30.756Z,42.80
2023-07-11T16:33:20.383Z,42.30
2023-07-11T16:36:13.696Z,43.10
2023-07-11T16:39:00.097Z,43.00
2023-07-11T16:41:47.939Z,43.30
2023-07-11T16:44:34.099Z,43.40
2023-07-11T16:47:20.260Z,40.80
2023-07-11T16:50:22.829Z,41.10
2023-07-11T16:53:18.781Z,41.30
2023-07-11T16:56:05.948Z,41.60
2023-07-11T16:58:52.680Z,41.10
2023-07-11T17:01:38.657Z,40.50
2023-07-11T17:04:25.206Z,41.30
2023-07-11T17:07:14.183Z,41.70
2023-07-11T17:10:00.196Z,42.30
2023-07-11T17:12:46.559Z,41.60
2023-07-11T17:15:32.672Z,42.10
2023-07-11T17:18:22.945Z,41.20
2023-07-11T17:21:11.420Z,40.50
2023-07-11T17:23:57.633Z,40.30
2023-07-11T17:26:43.867Z,40.70
2023-07-11T17:29:35.437Z,41.00
2023-07-11T17:32:24.610Z,41.20
2023-07-11T17:35:11.649Z,41.40
2023-07-11T17:37:57.954Z,41.60
2023-07-11T17:40:44.647Z,41.70
2023-07-11T17:43:32.016Z,42.10
2023-07-11T17:49:10.082Z,42.40
2023-07-11T17:51:56.227Z,42.80
2023-07-11T17:54:42.877Z,43.20
2023-07-11T17:57:37.511Z,43.50
2023-07-11T18:00:23.918Z,43.00
2023-07-11T18:03:09.895Z,43.30
2023-07-11T18:05:57.264Z,43.30
2023-07-11T18:08:43.608Z,43.70
2023-07-11T18:11:29.594Z,43.90
2023-07-11T18:14:15.745Z,43.50
2023-07-11T18:17:01.594Z,43.50
2023-07-11T18:19:48.480Z,43.70
2023-07-11T18:22:35.135Z,43.70
2023-07-11T18:25:21.393Z,44.00
2023-07-11T18:28:18.653Z,44.40
2023-07-11T18:31:04.667Z,44.20
2023-07-11T18:33:51.870Z,44.60
2023-07-11T18:36:38.148Z,44.80
2023-07-11T18:39:24.141Z,45.00
2023-07-11T18:42:28.755Z,45.70
2023-07-11T18:45:14.857Z,45.40
2023-07-11T18:48:00.826Z,46.00
2023-07-11T18:50:47.559Z,46.20
2023-07-11T18:53:34.104Z,46.60
2023-07-11T18:56:22.703Z,47.20
2023-07-11T18:59:10.246Z,47.10
2023-07-11T19:01:56.805Z,47.10
2023-07-11T19:04:44.409Z,47.20
2023-07-11T19:07:33.486Z,47.70
2023-07-11T19:10:31.071Z,47.90
2023-07-11T19:13:17.537Z,49.10
2023-07-11T19:16:03.963Z,49.40
2023-07-11T19:18:50.346Z,49.60
2023-07-11T19:21:37.974Z,49.60
2023-07-11T19:24:24.636Z,49.70
2023-07-11T19:27:12.417Z,50.40
2023-07-11T19:29:58.766Z,51.00
2023-07-11T19:32:46.239Z,51.10
2023-07-11T19:35:34.370Z,51.60
2023-07-11T19:38:26.037Z,51.60
2023-07-11T19:41:13.173Z,51.80
2023-07-11T19:44:00.987Z,52.10
2023-07-11T19:46:47.062Z,52.60
2023-07-11T19:49:33.616Z,52.90
2023-07-11T19:52:20.012Z,53.00
2023-07-11T19:55:06.444Z,53.20
2023-07-11T19:57:52.970Z,53.50
2023-07-11T20:00:39.593Z,53.40
2023-07-11T20:03:32.659Z,53.70
2023-07-11T20:06:23.183Z,53.10
2023-07-11T20:09:10.216Z,54.30
2023-07-11T20:11:56.432Z,55.20
2023-07-11T20:14:42.304Z,55.00
2023-07-11T20:17:28.368Z,55.60
2023-07-11T20:20:23.227Z,55.90
2023-07-11T20:23:09.653Z,55.80
2023-07-11T20:26:12.295Z,55.80
2023-07-11T20:28:58.867Z,56.00
2023-07-11T20:31:44.909Z,56.10
2023-07-11T20:34:30.756Z,57.00
2023-07-11T20:37:18.674Z,56.30
2023-07-11T20:40:16.618Z,56.20
2023-07-11T20:43:02.807Z,56.00
2023-07-11T20:45:50.271Z,55.80
2023-07-11T20:48:39.124Z,55.40
2023-07-11T20:51:25.211Z,55.20
2023-07-11T20:54:11.520Z,55.50
2023-07-11T20:56:57.460Z,55.00
2023-07-11T20:59:43.356Z,55.20
2023-07-11T21:02:29.496Z,54.90
2023-07-11T21:05:17.700Z,54.60
2023-07-11T21:08:05.051Z,54.80
2023-07-11T21:10:52.041Z,54.40
2023-07-11T21:13:38.184Z,54.40
2023-07-11T21:16:28.102Z,54.60
2023-07-11T21:19:23.375Z,55.40
2023-07-11T21:22:12.472Z,55.50
2023-07-11T21:24:58.916Z,56.20
2023-07-11T21:27:45.340Z,56.30
2023-07-11T21:30:43.976Z,56.70
2023-07-11T21:33:32.546Z,57.40
2023-07-11T21:36:25.486Z,57.00
2023-07-11T21:39:16.759Z,57.10
2023-07-11T21:42:02.856Z,57.60
2023-07-11T21:44:48.835Z,58.00
2023-07-11T21:47:34.808Z,58.00
2023-07-11T21:50:21.295Z,56.40
2023-07-11T21:53:12.132Z,61.90
2023-07-11T21:56:13.551Z,68.60
2023-07-11T21:59:02.643Z,78.70
2023-07-11T22:01:49.790Z,85.80
2023-07-11T22:04:36.008Z,90.90
2023-07-11T22:07:22.184Z,94.60
2023-07-11T22:10:37.070Z,97.50
2023-07-11T22:13:25.404Z,99.90
2023-07-11T22:16:16.805Z,99.90
2023-07-11T22:19:03.555Z,99.90
2023-07-11T22:21:53.628Z,99.90
2023-07-11T22:24:43.391Z,99.90
2023-07-11T22:27:29.393Z,99.90
2023-07-11T22:30:21.982Z,99.90
2023-07-11T22:33:09.985Z,99.90
2023-07-11T22:35:56.181Z,99.90
2023-07-11T22:38:42.258Z,99.90
2023-07-11T22:41:28.626Z,99.90
2023-07-11T22:44:14.674Z,99.90
2023-07-11T22:47:00.789Z,99.90
2023-07-11T22:49:47.295Z,99.90
2023-07-11T22:52:33.016Z,99.90
2023-07-11T22:55:21.413Z,99.90
2023-07-11T22:58:21.353Z,99.90
2023-07-11T23:01:13.281Z,99.90
2023-07-11T23:03:59.624Z,99.90
2023-07-11T23:06:45.572Z,99.90
2023-07-11T23:09:32.706Z,99.90
2023-07-11T23:12:18.924Z,99.90
2023-07-11T23:15:05.909Z,99.90
2023-07-11T23:17:52.954Z,99.90
2023-07-11T23:20:46.308Z,99.90
2023-07-11T23:23:33.427Z,99.90
2023-07-11T23:26:19.702Z,99.90
2023-07-11T23:29:06.190Z,99.90
2023-07-11T23:31:52.216Z,99.90
2023-07-11T23:34:38.385Z,99.90
2023-07-11T23:37:24.998Z,99.90
2023-07-11T23:40:32.668Z,99.90
2023-07-11T23:43:36.031Z,99.90
2023-07-11T23:46:27.926Z,99.90
2023-07-11T23:49:14.566Z,99.90
2023-07-11T23:52:00.607Z,99.90
2023-07-11T23:54:46.524Z,99.90
2023-07-11T23:57:32.590Z,99.90
